Acosta, Pennsylvania
Current Conditions -  °F | °C
As of 4:54 AM on Sunday 23 Nov 2014 (Local Time) from KJST Reporting Station
Broken Clouds Broken Clouds  
Wind Chill: 43°   Ceiling: 8500
Heat Index: 47°   Visibility: 10mi
Dew Point: 25°   Wind: 9mph
Humidity: 42%   Direction: 210°SSW
Pressure: 30.1"   Gusts: NA
Location:  40.11°N, 79.07°W
Report Text: KJST 230954Z AUTO 21008KT 10SM FEW046 BKN085 08/M04 A3010 RMK AO2 SLP201 T00831039
Loading
Personal Weather Stations






























Interactive Weather Map New forecast layout! Learn more

10-Day Weather Forecast

Advertisements
Track Severe Weather on mobile